Terminal Aerodrome Forecast
Issued by NWS Tallahassee, FL

Home | Current Version | Previous Version | Text Only | Print | Product List | Glossary On
Versions: 1 2 3 4 5 6 7 8 9 10 11 12 13
000
FTUS42 KTAE 222300
TAFTLH
TAF
KTLH 222321Z 2300/2324 12005KT 1/2SM FG OVC002
      TEMPO 2300/2304 1/4SM FG VV002
     FM230400 15003KT 1/4SM FG VV002
     FM231500 17010KT 2SM TSRA BR BKN003 OVC015CB=

USA.gov is the U.S. government's official web portal to all federal, state and local government web resources and services.